メインページ
METAR-TAF:

METAR-TAF

空港 :

Sanandaj, イラン

緯度: 35-20N, 経度: 047-00E, 海抜: 1373m

現時点の気象観測

当レポートは1時間17分前の17:00(UTC)に作成
北/北東の風 6kt
気温 4°C
湿度 41%
気圧 1025 hPa
視程10km以上
高度4000ftの雲はほとんどない

METAR: OICS 171700Z 02006KT 9999 FEW040 04/M08 Q1025 A3028

時間: 21:47 (18:17 UTC)


TAF: 見つかりません

4,000以上の空港の気象観測と天気予報(METAR報とTAF報)

利用可能な観測所は地図上に黄色い丸と赤い丸で示す。

丸の上にカーソルを重ねると観測所名を参照できる。

次にクリックすると気象観測と天気予報を参照できる。

マップの切り替え:黒色「×」印の緑ボタンをクリックして拡大、「-」印の緑ボタンをクリックして縮小、緑色の三角印をクリックして隣りの地図に切り替え


METAR-TAF: